createdAt,value
2023-09-09T00:01:33.792Z,11.20
2023-09-09T00:04:01.116Z,13.18
2023-09-09T00:06:27.855Z,11.30
2023-09-09T00:08:54.421Z,13.05
2023-09-09T00:11:21.017Z,13.43
2023-09-09T00:13:48.573Z,13.25
2023-09-09T00:16:15.236Z,10.63
2023-09-09T00:18:41.890Z,12.43
2023-09-09T00:21:08.450Z,10.55
2023-09-09T00:23:35.297Z,13.02
2023-09-09T00:26:02.091Z,12.70
2023-09-09T00:28:28.681Z,12.38
2023-09-09T00:30:55.328Z,11.27
2023-09-09T00:33:21.945Z,10.77
2023-09-09T00:35:48.456Z,11.13
2023-09-09T00:38:15.147Z,10.40
2023-09-09T00:40:45.709Z,12.63
2023-09-09T00:43:12.385Z,11.60
2023-09-09T00:45:40.323Z,9.95
2023-09-09T00:48:07.087Z,10.02
2023-09-09T00:50:33.765Z,13.25
2023-09-09T00:53:00.547Z,10.65
2023-09-09T00:55:28.292Z,10.95
2023-09-09T00:57:54.991Z,12.32
2023-09-09T01:00:21.539Z,11.57
2023-09-09T01:02:48.258Z,12.98
2023-09-09T01:05:15.636Z,11.80
2023-09-09T01:07:48.755Z,14.50
2023-09-09T01:10:18.088Z,13.85
2023-09-09T01:12:45.533Z,12.90
2023-09-09T01:15:13.478Z,16.30
2023-09-09T01:17:41.536Z,13.48
2023-09-09T01:20:15.285Z,13.68
2023-09-09T01:22:44.758Z,12.52
2023-09-09T01:25:12.635Z,14.15
2023-09-09T01:27:39.701Z,13.57
2023-09-09T01:30:07.842Z,13.73
2023-09-09T01:32:34.651Z,18.17
2023-09-09T01:35:04.977Z,13.48
2023-09-09T01:37:32.557Z,17.90
2023-09-09T01:39:59.466Z,12.93
2023-09-09T01:42:26.068Z,12.75
2023-09-09T01:44:52.646Z,12.20
2023-09-09T01:47:21.901Z,16.38
2023-09-09T01:49:50.190Z,14.90
2023-09-09T01:52:16.858Z,15.43
2023-09-09T01:54:43.864Z,16.77
2023-09-09T01:57:10.371Z,15.90
2023-09-09T01:59:36.922Z,20.17
2023-09-09T02:02:03.648Z,17.38
2023-09-09T02:04:33.097Z,17.25
2023-09-09T02:06:59.968Z,14.23
2023-09-09T02:09:26.581Z,16.05
2023-09-09T02:11:53.329Z,15.88
2023-09-09T02:14:19.932Z,17.05
2023-09-09T02:16:46.525Z,16.58
2023-09-09T02:19:13.021Z,18.02
2023-09-09T02:21:39.623Z,21.63
2023-09-09T02:24:06.341Z,20.23
2023-09-09T02:26:32.824Z,21.85
2023-09-09T02:28:59.955Z,23.35
2023-09-09T02:31:26.507Z,29.42
2023-09-09T02:33:53.492Z,30.10
2023-09-09T02:36:20.128Z,31.75
2023-09-09T02:38:46.631Z,33.20
2023-09-09T02:41:13.245Z,30.33
2023-09-09T02:43:39.955Z,30.48
2023-09-09T02:46:07.658Z,27.25
2023-09-09T02:48:34.325Z,26.83
2023-09-09T02:51:00.893Z,26.10
2023-09-09T02:53:27.504Z,27.10
2023-09-09T02:55:54.167Z,28.48
2023-09-09T02:58:21.151Z,30.05
2023-09-09T03:00:48.949Z,27.20
2023-09-09T03:03:21.710Z,28.13
2023-09-09T03:05:48.612Z,33.42
2023-09-09T03:08:15.712Z,32.28
2023-09-09T03:10:42.412Z,31.38
2023-09-09T03:13:09.115Z,32.55
2023-09-09T03:15:35.617Z,32.55
2023-09-09T03:18:02.222Z,30.95
2023-09-09T03:20:28.958Z,31.00
2023-09-09T03:22:55.970Z,32.13
2023-09-09T03:25:22.606Z,28.40
2023-09-09T03:27:49.164Z,28.33
2023-09-09T03:30:15.726Z,23.17
2023-09-09T03:32:42.493Z,22.45
2023-09-09T03:35:09.952Z,20.48
2023-09-09T03:37:36.844Z,21.65
2023-09-09T03:40:06.700Z,23.48
2023-09-09T03:42:34.652Z,22.05
2023-09-09T03:45:01.310Z,19.58
2023-09-09T03:47:28.199Z,26.08
2023-09-09T03:49:55.162Z,27.50
2023-09-09T03:52:21.903Z,27.60
2023-09-09T03:54:48.389Z,30.38
2023-09-09T03:57:15.024Z,29.85
2023-09-09T03:59:41.582Z,28.80
2023-09-09T04:02:08.188Z,30.10
2023-09-09T04:04:34.892Z,29.75
2023-09-09T04:07:01.710Z,26.95
2023-09-09T04:09:28.256Z,32.47
2023-09-09T04:11:56.341Z,29.88
2023-09-09T04:14:22.882Z,30.20
2023-09-09T04:16:49.621Z,27.73
2023-09-09T04:19:16.232Z,26.52
2023-09-09T04:21:42.771Z,25.23
2023-09-09T04:24:09.647Z,26.13
2023-09-09T04:26:36.351Z,27.42
2023-09-09T04:29:03.338Z,23.88
2023-09-09T04:31:29.872Z,25.75
2023-09-09T04:33:56.408Z,21.75
2023-09-09T04:36:23.047Z,22.25
2023-09-09T04:38:49.677Z,26.02
2023-09-09T04:41:16.214Z,28.95
2023-09-09T04:43:42.969Z,23.92
2023-09-09T04:46:09.557Z,24.65
2023-09-09T04:48:36.517Z,25.45
2023-09-09T04:51:03.178Z,22.17
2023-09-09T04:53:29.812Z,27.38
2023-09-09T04:55:57.827Z,27.05
2023-09-09T04:58:26.394Z,30.80
2023-09-09T05:00:53.111Z,30.20
2023-09-09T05:03:21.101Z,38.95
2023-09-09T05:05:47.843Z,43.38
2023-09-09T05:08:14.396Z,40.78
2023-09-09T05:10:41.095Z,44.42
2023-09-09T05:13:07.674Z,53.53
2023-09-09T05:15:34.551Z,55.85
2023-09-09T05:18:01.193Z,53.30
2023-09-09T05:20:28.238Z,54.53
2023-09-09T05:22:55.338Z,54.90
2023-09-09T05:25:22.016Z,58.63
2023-09-09T05:27:48.563Z,63.17
2023-09-09T05:30:15.733Z,55.88
2023-09-09T05:32:42.785Z,55.13
2023-09-09T05:35:11.844Z,55.83
2023-09-09T05:37:38.787Z,51.97
2023-09-09T05:40:06.199Z,53.25
2023-09-09T05:42:32.991Z,65.43
2023-09-09T05:45:00.780Z,60.35
2023-09-09T05:47:27.496Z,75.38
2023-09-09T05:49:55.207Z,84.50
2023-09-09T05:52:21.888Z,81.40
2023-09-09T05:54:48.500Z,90.13
2023-09-09T05:57:15.081Z,81.30
2023-09-09T05:59:41.953Z,74.45
2023-09-09T06:02:10.646Z,75.45
2023-09-09T06:04:37.502Z,70.32
2023-09-09T06:07:08.489Z,82.53
2023-09-09T06:09:35.121Z,80.38
2023-09-09T06:12:03.238Z,113.28
2023-09-09T06:14:29.941Z,91.97
2023-09-09T06:16:57.559Z,71.00
2023-09-09T06:19:24.417Z,81.28
2023-09-09T06:21:51.448Z,84.55
2023-09-09T06:24:18.258Z,73.82
2023-09-09T06:26:44.951Z,74.38
2023-09-09T06:29:11.703Z,82.97
2023-09-09T06:31:38.382Z,83.85
2023-09-09T06:34:05.488Z,77.03
2023-09-09T06:36:32.183Z,98.78
2023-09-09T06:39:00.292Z,62.03
2023-09-09T06:41:26.861Z,59.33
2023-09-09T06:43:53.493Z,58.90
2023-09-09T06:46:20.034Z,57.33
2023-09-09T06:48:46.556Z,59.72
2023-09-09T06:51:13.971Z,58.03
2023-09-09T19:24:05.901Z,11.35
2023-09-09T19:26:32.490Z,11.98
2023-09-09T19:28:59.051Z,10.98
2023-09-09T19:31:25.857Z,12.95
2023-09-09T19:33:52.516Z,10.23
2023-09-09T19:36:19.318Z,11.80
2023-09-09T19:38:47.085Z,9.77
2023-09-09T19:41:15.819Z,9.80
2023-09-09T19:43:42.365Z,9.18
2023-09-09T19:46:10.329Z,9.07
2023-09-09T19:48:37.222Z,11.00
2023-09-09T19:51:04.406Z,10.00
2023-09-09T19:53:31.022Z,9.45
2023-09-09T19:55:57.663Z,11.02
2023-09-09T19:58:24.256Z,14.50
2023-09-09T20:00:51.014Z,10.02
2023-09-09T20:03:17.590Z,11.55
2023-09-09T20:05:49.179Z,9.20
2023-09-09T20:08:15.772Z,10.48
2023-09-09T20:10:45.670Z,9.13
2023-09-09T20:13:12.394Z,10.43
2023-09-09T20:15:42.650Z,11.70
2023-09-09T20:18:09.591Z,10.82
2023-09-09T20:20:40.049Z,9.88
2023-09-09T20:23:06.805Z,9.98
2023-09-09T20:25:33.536Z,11.05
2023-09-09T20:28:00.073Z,11.85
2023-09-09T20:30:27.007Z,11.23
2023-09-09T20:32:56.435Z,11.88
2023-09-09T20:35:34.098Z,13.88
2023-09-09T20:38:01.230Z,13.95
2023-09-09T20:40:28.534Z,11.23
2023-09-09T20:42:57.110Z,17.45
2023-09-09T20:45:24.958Z,12.13
2023-09-09T20:47:52.231Z,12.85
2023-09-09T20:50:21.686Z,13.32
2023-09-09T20:52:52.951Z,13.35
2023-09-09T20:55:21.608Z,12.10
2023-09-09T20:57:48.807Z,12.57
2023-09-09T21:00:16.835Z,11.82
2023-09-09T21:02:46.414Z,11.68
2023-09-09T21:05:13.943Z,12.80
2023-09-09T21:07:42.165Z,11.82
2023-09-09T21:10:12.618Z,9.98
2023-09-09T21:12:42.020Z,11.52
2023-09-09T21:15:09.728Z,14.02
2023-09-09T21:17:36.348Z,11.75
2023-09-09T21:20:04.603Z,13.00
2023-09-09T21:22:31.821Z,11.65
2023-09-09T21:25:02.159Z,12.38
2023-09-09T21:27:29.782Z,10.88
2023-09-09T21:29:56.568Z,13.75
2023-09-09T21:32:23.423Z,13.05
2023-09-09T21:34:51.966Z,11.20
2023-09-09T21:37:20.858Z,13.75
2023-09-09T21:39:48.247Z,12.05
2023-09-09T21:42:15.209Z,11.52
2023-09-09T21:44:44.468Z,9.85
2023-09-09T21:47:11.188Z,9.40
2023-09-09T21:49:37.824Z,10.85
2023-09-09T21:52:06.012Z,13.45
2023-09-09T21:54:32.632Z,11.55
2023-09-09T21:56:59.180Z,11.68
2023-09-09T21:59:25.741Z,10.27
2023-09-09T22:01:52.293Z,9.38
2023-09-09T22:04:18.784Z,12.52
2023-09-09T22:06:45.371Z,12.48
2023-09-09T22:09:12.881Z,13.43
2023-09-09T22:11:39.553Z,10.73
2023-09-09T22:14:06.212Z,9.50
2023-09-09T22:16:33.235Z,11.60
2023-09-09T22:18:59.853Z,11.63
2023-09-09T22:21:26.769Z,11.23
2023-09-09T22:23:53.423Z,12.63
2023-09-09T22:26:24.999Z,11.25
2023-09-09T22:28:51.804Z,10.98
2023-09-09T22:31:19.509Z,12.68
2023-09-09T22:33:46.075Z,14.90
2023-09-09T22:36:12.651Z,14.23
2023-09-09T22:38:39.437Z,12.38
2023-09-09T22:41:06.844Z,13.85
2023-09-09T22:43:33.433Z,14.05
2023-09-09T22:46:06.122Z,14.50
2023-09-09T22:48:32.932Z,14.07
2023-09-09T22:51:00.006Z,15.55
2023-09-09T22:53:26.506Z,13.55
2023-09-09T22:55:53.121Z,13.77
2023-09-09T22:58:19.712Z,14.32
2023-09-09T23:00:46.189Z,11.63
2023-09-09T23:03:12.901Z,13.18
2023-09-09T23:05:39.765Z,13.57
2023-09-09T23:08:06.549Z,12.55
2023-09-09T23:10:33.091Z,11.07
2023-09-09T23:12:59.676Z,12.30
2023-09-09T23:15:26.692Z,13.27
2023-09-09T23:17:53.315Z,11.27
2023-09-09T23:20:20.884Z,14.93
2023-09-09T23:22:47.524Z,11.10
2023-09-09T23:25:15.649Z,11.32
2023-09-09T23:27:42.468Z,10.68
2023-09-09T23:30:10.824Z,15.13
2023-09-09T23:32:37.485Z,13.02
2023-09-09T23:35:04.363Z,11.23
2023-09-09T23:37:31.453Z,10.93
2023-09-09T23:39:58.265Z,12.30
2023-09-09T23:42:24.773Z,10.02
2023-09-09T23:44:51.362Z,11.07
2023-09-09T23:47:18.166Z,13.68
2023-09-09T23:49:44.856Z,11.05
2023-09-09T23:52:11.586Z,13.90
2023-09-09T23:54:38.088Z,11.52
2023-09-09T23:57:06.173Z,11.63
2023-09-09T23:59:33.075Z,11.07
